Flight Track Log - Related Links

Times and Time Zones

All times are in EST time to prevent confusion due to time zone crossing. See the AVN10 flight status page for this flight to view local times or setup timezone preferences in your user account.

Time Position Orientation Groundspeed Altitude Reporting Facility
EST Latitude Longitude Course Direction KTS MPH feet Rate Location/Type
Tue 01:20:00 AM -17.8871 168.1178 226° Southwest  Level FlightAware Approximate
Tue 01:21:00 AM -17.9497 168.0504 226° Southwest  Level FlightAware Approximate
Tue 01:22:00 AM -18.0122 167.9830 226° Southwest  Level FlightAware Approximate
Tue 01:23:00 AM -18.0747 167.9155 226° Southwest  Level FlightAware Approximate
Tue 01:24:00 AM -18.1372 167.8479 226° Southwest  Level FlightAware Approximate
Tue 01:25:00 AM -18.1997 167.7803 226° Southwest  Level FlightAware Approximate
Tue 01:26:00 AM -18.2621 167.7127 226° Southwest  Level FlightAware Approximate
Tue 01:27:00 AM -18.3245 167.6450 226° Southwest  Level FlightAware Approximate
Tue 01:28:00 AM -18.3869 167.5772 226° Southwest  Level FlightAware Approximate
Tue 01:29:00 AM -18.4493 167.5094 226° Southwest  Level FlightAware Approximate
Tue 01:30:00 AM -18.5116 167.4416 226° Southwest  Level FlightAware Approximate
Tue 01:31:00 AM -18.5739 167.3737 226° Southwest  Level FlightAware Approximate
Tue 01:32:00 AM -18.6362 167.3058 226° Southwest  Level FlightAware Approximate
Tue 01:33:00 AM -18.6985 167.2378 226° Southwest  Level FlightAware Approximate
Tue 01:34:00 AM -18.7607 167.1697 226° Southwest  Level FlightAware Approximate
Tue 01:35:00 AM -18.8230 167.1017 226° Southwest  Level FlightAware Approximate
Tue 01:36:00 AM -18.8851 167.0335 226° Southwest  Level FlightAware Approximate
Tue 01:37:00 AM -18.9473 166.9653 226° Southwest  Level FlightAware Approximate
Tue 01:38:00 AM -19.0095 166.8971 226° Southwest  Level FlightAware Approximate
Tue 01:39:00 AM -19.0716 166.8288 226° Southwest  Level FlightAware Approximate
Tue 01:40:00 AM -19.1337 166.7604 226° Southwest  Level FlightAware Approximate
Tue 01:41:00 AM -19.1957 166.6920 226° Southwest  Level FlightAware Approximate
Tue 01:42:00 AM -19.2578 166.6236 226° Southwest  Level FlightAware Approximate
Tue 01:43:00 AM -19.3198 166.5551 226° Southwest  Level FlightAware Approximate
Tue 01:44:00 AM -19.3818 166.4865 226° Southwest  Level FlightAware Approximate
Tue 01:45:00 AM -19.4438 166.4179 226° Southwest  Level FlightAware Approximate
Tue 01:46:00 AM -19.5057 166.3492 226° Southwest  Level FlightAware Approximate
Tue 01:47:00 AM -19.5676 166.2805 226° Southwest  Level FlightAware Approximate
Tue 01:48:00 AM -19.6295 166.2118 226° Southwest  Level FlightAware Approximate
Tue 01:49:00 AM -19.6914 166.1430 226° Southwest  Level FlightAware Approximate
Tue 01:50:00 AM -19.7532 166.0741 226° Southwest  Level FlightAware Approximate
Tue 01:51:00 AM -19.8150 166.0052 226° Southwest  Level FlightAware Approximate
Tue 01:52:00 AM -19.8768 165.9362 226° Southwest  Level FlightAware Approximate
Tue 01:53:00 AM -19.9386 165.8672 226° Southwest  Level FlightAware Approximate
Tue 01:54:00 AM -20.0003 165.7981 226° Southwest  Level FlightAware Approximate
Tue 01:55:00 AM -20.0620 165.7289 226° Southwest  Level FlightAware Approximate
Tue 01:56:00 AM -20.1237 165.6597 226° Southwest  Level FlightAware Approximate
Tue 01:57:00 AM -20.1853 165.5905 227° Southwest  Level FlightAware Approximate
Tue 01:58:00 AM -20.2469 165.5212 227° Southwest  Level FlightAware Approximate
Tue 01:59:00 AM -20.3085 165.4518 227° Southwest  Level FlightAware Approximate
Tue 02:00:00 AM -20.3701 165.3824 227° Southwest  Level FlightAware Approximate
Tue 02:01:00 AM -20.4388 165.3211 212° Southwest  Level Estimated
Tue 02:02:00 AM -20.5101 165.2631 217° Southwest  Level FlightAware Approximate
Tue 02:03:00 AM -20.5813 165.2050 217° Southwest  Level FlightAware Approximate
Tue 02:04:00 AM -20.6524 165.1469 217° Southwest  Level FlightAware Approximate
Tue 02:05:00 AM -20.7236 165.0887 217° Southwest  Level FlightAware Approximate
Tue 02:06:00 AM -20.7947 165.0305 217° Southwest  Level FlightAware Approximate
Tue 02:07:00 AM -20.8659 164.9722 217° Southwest  Level FlightAware Approximate
Tue 02:08:00 AM -20.9370 164.9138 217° Southwest  Level FlightAware Approximate
Tue 02:09:00 AM -21.0080 164.8554 217° Southwest  Level FlightAware Approximate
Tue 02:10:00 AM -21.0791 164.7969 218° Southwest  Level FlightAware Approximate
Tue 02:10:18 AM -22.2013 163.2763 219° Southwest 36,000  Level Aus ATC (Calculated)
Tue 02:12:00 AM -22.3181 163.1851 216° Southwest  Level FlightAware Approximate
Tue 02:13:00 AM -22.3867 163.1313 216° Southwest  Level FlightAware Approximate
Tue 02:13:18 AM -22.4282 163.0094 218° Southwest 36,000  Level Aus ATC (Calculated)
Tue 02:14:00 AM -22.4967 162.9286 218° Southwest 36,000  Level Aus ATC (Calculated)
Tue 02:15:00 AM -22.5656 162.8753 216° Southwest  Level FlightAware Approximate
Tue 02:15:40 AM -22.6292 162.7719 218° Southwest 36,000  Level Aus ATC (Calculated)
Tue 02:16:00 AM -22.6346 162.8219 216° Southwest  Level FlightAware Approximate
Tue 02:17:00 AM -22.7209 162.7013 215° Southwest  Level FlightAware Approximate
Tue 02:18:00 AM -22.7896 162.6484 215° Southwest  Level FlightAware Approximate
Tue 02:19:00 AM -22.8584 162.5953 215° Southwest  Level FlightAware Approximate
Tue 02:20:00 AM -22.9271 162.5423 215° Southwest  Level FlightAware Approximate
Tue 02:21:00 AM -22.9958 162.4891 215° Southwest  Level FlightAware Approximate
Tue 02:22:00 AM -23.0645 162.4359 215° Southwest  Level FlightAware Approximate
Tue 02:23:00 AM -23.1332 162.3827 215° Southwest  Level FlightAware Approximate
Tue 02:24:00 AM -23.2018 162.3294 216° Southwest  Level FlightAware Approximate
Tue 02:25:00 AM -23.2705 162.2760 216° Southwest  Level FlightAware Approximate
Tue 02:26:00 AM -23.3391 162.2226 216° Southwest  Level FlightAware Approximate
Tue 02:26:36 AM -23.4949 161.7356 216° Southwest 36,000  Level Aus ATC (Calculated)
Tue 02:28:00 AM -23.5927 161.6635 214° Southwest  Level FlightAware Approximate
Tue 02:29:00 AM -23.6626 161.6119 214° Southwest  Level FlightAware Approximate
Tue 02:30:00 AM -23.7325 161.5603 214° Southwest  Level FlightAware Approximate
Tue 02:31:00 AM -23.8023 161.5085 214° Southwest  Level FlightAware Approximate
Tue 02:32:00 AM -23.8721 161.4568 214° Southwest  Level FlightAware Approximate
Tue 02:33:00 AM -23.9419 161.4050 214° Southwest  Level FlightAware Approximate
Tue 02:34:00 AM -24.0117 161.3531 214° Southwest  Level FlightAware Approximate
Tue 02:35:00 AM -24.0814 161.3012 214° Southwest  Level FlightAware Approximate
Tue 02:36:00 AM -24.1512 161.2492 214° Southwest  Level FlightAware Approximate
Tue 02:37:00 AM -24.2209 161.1972 214° Southwest  Level FlightAware Approximate
Tue 02:38:00 AM -24.2906 161.1451 214° Southwest  Level FlightAware Approximate
Tue 02:39:00 AM -24.3603 161.0929 214° Southwest  Level FlightAware Approximate
Tue 02:40:00 AM -24.4300 161.0407 214° Southwest  Level FlightAware Approximate
Tue 02:41:00 AM -24.4996 160.9885 214° Southwest  Level FlightAware Approximate
Tue 02:42:00 AM -24.5692 160.9361 214° Southwest  Level FlightAware Approximate
Tue 02:43:00 AM -24.6388 160.8838 214° Southwest  Level FlightAware Approximate
Tue 02:44:00 AM -24.7085 160.8313 214° Southwest  Level FlightAware Approximate
Tue 02:45:00 AM -24.7780 160.7788 214° Southwest  Level FlightAware Approximate
Tue 02:46:00 AM -24.8476 160.7263 214° Southwest  Level FlightAware Approximate
Tue 02:47:00 AM -24.9171 160.6736 214° Southwest  Level FlightAware Approximate
Tue 02:48:00 AM -24.9867 160.6210 214° Southwest  Level FlightAware Approximate
Tue 02:49:00 AM -25.0562 160.5682 214° Southwest  Level FlightAware Approximate
Tue 02:49:00 AM -25.5807 159.7138 212° Southwest 36,000  Level Aus ATC (Calculated)
Tue 02:50:00 AM -25.6524 159.6645 212° Southwest  Level FlightAware Approximate
Tue 02:50:21 AM -25.7279 159.6124 212° Southwest 36,000  Level Aus ATC (Calculated)
Tue 02:51:15 AM -25.8260 159.5447 212° Southwest 36,000  Level Aus ATC (Calculated)
Tue 02:53:00 AM -25.9495 159.4592 212° Southwest  Level FlightAware Approximate
Tue 02:54:00 AM -26.0201 159.4103 212° Southwest  Level FlightAware Approximate
Tue 02:55:00 AM -26.0906 159.3614 212° Southwest  Level FlightAware Approximate
Tue 02:56:00 AM -26.1611 159.3123 212° Southwest  Level FlightAware Approximate
Tue 02:57:00 AM -26.2316 159.2632 212° Southwest  Level FlightAware Approximate
Tue 02:58:00 AM -26.3021 159.2141 212° Southwest  Level FlightAware Approximate
Tue 02:59:00 AM -26.3726 159.1649 212° Southwest  Level FlightAware Approximate
Tue 03:00:00 AM -26.4430 159.1156 212° Southwest  Level FlightAware Approximate
Tue 03:01:00 AM -26.5135 159.0663 212° Southwest  Level FlightAware Approximate
Tue 03:02:00 AM -26.5839 159.0169 212° Southwest  Level FlightAware Approximate
Tue 03:03:00 AM -26.6543 158.9675 212° Southwest  Level FlightAware Approximate
Tue 03:04:00 AM -26.7247 158.9179 212° Southwest  Level FlightAware Approximate
Tue 03:05:00 AM -26.7951 158.8684 212° Southwest  Level FlightAware Approximate
Tue 03:06:00 AM -26.8654 158.8187 212° Southwest  Level FlightAware Approximate
Tue 03:07:00 AM -26.9357 158.7690 212° Southwest  Level FlightAware Approximate
Tue 03:08:00 AM -27.0061 158.7193 212° Southwest  Level FlightAware Approximate
Tue 03:09:00 AM -27.0764 158.6695 212° Southwest  Level FlightAware Approximate
Tue 03:10:00 AM -27.1466 158.6196 212° Southwest  Level FlightAware Approximate
Tue 03:11:00 AM -27.2169 158.5697 212° Southwest  Level FlightAware Approximate
Tue 03:11:12 AM -27.9753 158.0257 33° Northeast 36,000  Level Aus ATC (Calculated)
Tue 03:13:00 AM -28.1013 157.9344 213° Southwest  Level FlightAware Approximate
Tue 03:13:12 AM -28.1698 157.8848 33° Northeast 36,000  Level Aus ATC (Calculated)
Tue 03:14:00 AM -28.1714 157.8836 213° Southwest  Level FlightAware Approximate
Tue 03:15:00 AM -28.2958 157.7931 213° Southwest  Level FlightAware Approximate
Tue 03:15:12 AM -28.4127 157.7078 33° Northeast 36,000  Level Aus ATC (Calculated)
Tue 03:17:00 AM -28.5449 157.6111 213° Southwest  Level FlightAware Approximate
Tue 03:18:00 AM -28.6184 157.5572 213° Southwest  Level FlightAware Approximate
Tue 03:18:45 AM -28.8009 157.4230 33° Northeast 36,000  Level Aus ATC (Calculated)
Tue 03:19:00 AM -28.6918 157.5033 213° Southwest  Level FlightAware Approximate
Tue 03:20:00 AM -28.8926 157.3553 213° Southwest  Level FlightAware Approximate
Tue 03:21:00 AM -28.9659 157.3011 213° Southwest  Level FlightAware Approximate
Tue 03:21:10 AM -27.7346 158.1999 213° Southwest 446 513 36,000  Level Aus ATC (RADAR)
Tue 03:21:45 AM -27.7903 158.1588 213° Southwest 419 482 36,000  Level Aus ATC (RADAR)
Tue 03:22:30 AM -27.8635 158.1054 213° Southwest 417 480 36,000  Level Aus ATC (RADAR)
Tue 03:23:00 AM -27.9123 158.0700 213° Southwest 417 480 36,000  Level Aus ATC (RADAR)
Tue 03:23:50 AM -27.9928 158.0111 213° Southwest 414 476 36,000  Level Aus ATC (RADAR)
Tue 03:24:15 AM -28.0340 157.9815 212° Southwest 416 479 36,000  Level Aus ATC (RADAR)
Tue 03:24:39 AM -28.0747 157.9522 212° Southwest 417 480 36,000  Level Aus ATC (RADAR)
Tue 03:25:15 AM -28.1327 157.9109 212° Southwest 419 482 36,000  Level Aus ATC (RADAR)
Tue 03:25:59 AM -28.2056 157.8572 213° Southwest 419 482 36,000  Level Aus ATC (RADAR)
Tue 03:26:34 AM -28.2623 157.8155 213° Southwest 417 480 36,000  Level Aus ATC (RADAR)
Tue 03:27:19 AM -28.3361 157.7614 213° Southwest 420 483 36,000  Level Aus ATC (RADAR)
Tue 03:27:46 AM -28.3774 157.7317 212° Southwest 419 482 36,000  Level Aus ATC (RADAR)
Tue 03:28:19 AM -28.4353 157.6897 213° Southwest 422 486 36,000  Level Aus ATC (RADAR)
Tue 03:29:14 AM -28.5259 157.6230 213° Southwest 424 488 36,000  Level Aus ATC (RADAR)
Tue 03:29:39 AM -28.5678 157.5929 212° Southwest 423 487 36,000  Level Aus ATC (RADAR)
Tue 03:30:14 AM -28.6246 157.5505 213° Southwest 423 487 36,000  Level Aus ATC (RADAR)
Tue 03:30:59 AM -28.6994 157.4961 212° Southwest 423 487 36,000  Level Aus ATC (RADAR)
Tue 03:31:34 AM -28.7585 157.4533 212° Southwest 428 493 36,000  Level Aus ATC (RADAR)
Tue 03:32:19 AM -28.8327 157.3986 213° Southwest 426 490 36,000  Level Aus ATC (RADAR)
Tue 03:32:44 AM -28.8736 157.3681 213° Southwest 424 488 36,000  Level Aus ATC (RADAR)
Tue 03:33:19 AM -28.9344 157.3248 212° Southwest 431 496 36,000  Level Aus ATC (RADAR)
Tue 03:34:48 AM -29.0829 157.2149 213° Southwest 425 489 36,000  Level Aus ATC (RADAR)
Tue 03:35:13 AM -29.1241 157.1844 213° Southwest 425 489 36,000  Level Aus ATC (RADAR)
Tue 03:35:48 AM -29.1825 157.1413 213° Southwest 427 491 36,000  Level Aus ATC (RADAR)
Tue 03:36:28 AM -29.2472 157.0925 213° Southwest 421 484 36,000 150 Level Aus ATC (RADAR)
Tue 03:37:08 AM -29.3140 157.0431 213° Southwest 426 490 36,200 150 Climbing Aus ATC (RADAR)
Tue 03:37:48 AM -29.3800 156.9937 213° Southwest 425 489 36,200  Level Aus ATC (RADAR)
Tue 03:38:13 AM -29.4201 156.9636 213° Southwest 422 486 36,200 -160 Level Aus ATC (RADAR)
Tue 03:39:03 AM -29.5024 156.9019 213° Southwest 424 488 36,000 -160 Descending Aus ATC (RADAR)
Tue 03:39:28 AM -29.5439 156.8709 213° Southwest 425 489 36,000  Level Aus ATC (RADAR)
Tue 03:39:53 AM -29.5850 156.8397 213° Southwest 426 490 36,000 200 Level Aus ATC (RADAR)
Tue 03:40:28 AM -29.6407 156.7934 216° Southwest 427 491 36,200 133 Climbing Aus ATC (RADAR)
Tue 03:41:23 AM -29.7249 156.7168 218° Southwest 423 487 36,200  Level Aus ATC (RADAR)
Tue 03:41:58 AM -29.7788 156.6681 218° Southwest 423 487 36,200 80 Level Aus ATC (RADAR)
Tue 03:42:38 AM -29.8420 156.6118 218° Southwest 428 493 36,300 92 Climbing Aus ATC (RADAR)
Tue 03:43:03 AM -29.8812 156.5766 218° Southwest 429 494 36,300 -100 Level Aus ATC (RADAR)
Tue 03:43:38 AM -29.9353 156.5277 218° Southwest 427 491 36,200 -67 Descending Aus ATC (RADAR)
Tue 03:44:32 AM -30.0208 156.4507 218° Southwest 426 490 36,200  Level Aus ATC (RADAR)
Tue 03:44:57 AM -30.0596 156.4157 218° Southwest 426 490 36,200 100 Level Aus ATC (RADAR)
Tue 03:45:32 AM -30.1136 156.3665 218° Southwest 425 489 36,300 75 Climbing Aus ATC (RADAR)
Tue 03:46:17 AM -30.1831 156.3037 218° Southwest 424 488 36,300  Level Aus ATC (RADAR)
Tue 03:46:52 AM -30.2373 156.2545 218° Southwest 425 489 36,300  Level Aus ATC (RADAR)
Tue 03:47:27 AM -30.2914 156.2053 218° Southwest 425 489 36,300  Level Aus ATC (RADAR)
Tue 03:48:02 AM -30.3464 156.1555 218° Southwest 429 494 36,300  Level Aus ATC (RADAR)
Tue 03:48:37 AM -30.3997 156.1069 218° Southwest 423 487 36,300  Level Aus ATC (RADAR)
Tue 03:49:47 AM -30.5077 156.0084 218° Southwest 425 489 36,300  Level Aus ATC (RADAR)
Tue 03:50:07 AM -30.5386 155.9802 218° Southwest 425 489 36,300  Level Aus ATC (RADAR)
Tue 03:50:42 AM -30.5915 155.9318 218° Southwest 420 483 36,300  Level Aus ATC (RADAR)
Tue 03:51:27 AM -30.6601 155.8684 218° Southwest 421 484 36,300  Level Aus ATC (RADAR)
Tue 03:52:02 AM -30.7137 155.8193 218° Southwest 421 484 36,300  Level Aus ATC (RADAR)
Tue 03:52:37 AM -30.7674 155.7702 218° Southwest 422 486 36,300  Level Aus ATC (RADAR)
Tue 03:53:16 AM -30.8286 155.7134 218° Southwest 423 487 36,300  Level Aus ATC (RADAR)
Tue 03:53:51 AM -30.8823 155.6640 218° Southwest 423 487 36,300  Level Aus ATC (RADAR)
Tue 03:54:41 AM -30.9590 155.5930 218° Southwest 424 488 36,300  Level Aus ATC (RADAR)
Tue 03:55:06 AM -30.9975 155.5576 218° Southwest 424 488 36,300  Level Aus ATC (RADAR)
Tue 03:55:41 AM -31.0512 155.5080 218° Southwest 423 487 36,300  Level Aus ATC (RADAR)
Tue 03:56:21 AM -31.1123 155.4510 219° Southwest 423 487 36,300  Level Aus ATC (RADAR)
Tue 03:57:01 AM -31.1734 155.3941 219° Southwest 423 487 36,300  Level Aus ATC (RADAR)
Tue 03:57:41 AM -31.2346 155.3371 219° Southwest 423 487 36,300  Level Aus ATC (RADAR)
Tue 03:58:06 AM -31.2723 155.3019 219° Southwest 420 483 36,300  Level Aus ATC (RADAR)
Tue 03:58:41 AM -31.3257 155.2521 219° Southwest 421 484 36,300  Level Aus ATC (RADAR)
Tue 03:59:41 AM -31.4163 155.1672 219° Southwest 419 482 36,300  Level Aus ATC (RADAR)
Tue 04:00:06 AM -31.4543 155.1315 219° Southwest 420 483 36,300 -327 Level Aus ATC (RADAR)
Tue 04:00:36 AM -31.4930 155.0950 219° Southwest 418 481 36,000  Descending FlightAware ADS-B
Tue 04:00:41 AM -31.5068 155.0824 219° Southwest 418 481 36,300  Climbing Aus ATC (RADAR)
Tue 04:01:07 AM -31.5400 155.0510 219° Southwest 418 481 36,000  Descending FlightAware ADS-B
Tue 04:01:26 AM -31.5748 155.0184 219° Southwest 418 481 36,300  Climbing Aus ATC (RADAR)
Tue 04:01:58 AM -31.6110 154.9840 219° Southwest 417 480 36,000  Descending FlightAware ADS-B
Tue 04:02:01 AM -31.6272 154.9688 219° Southwest 417 480 36,300 486 Climbing Aus ATC (RADAR)
Tue 04:02:35 AM -31.6796 154.9197 219° Southwest 415 478 36,300 -310 Level Aus ATC (RADAR)
Tue 04:02:59 AM -31.7080 154.8920 219° Southwest 416 479 36,000  Descending FlightAware ADS-B
Tue 04:03:05 AM -31.7247 154.8771 219° Southwest 416 479 36,300  Climbing Aus ATC (RADAR)
Tue 04:03:26 AM -31.7490 154.8540 219° Southwest 415 478 36,000  Descending FlightAware ADS-B
Tue 04:03:40 AM -31.7769 154.8276 219° Southwest 414 476 36,300  Climbing Aus ATC (RADAR)
Tue 04:04:02 AM -31.8010 154.8050 219° Southwest 415 478 36,000 -310 Descending FlightAware ADS-B
Tue 04:04:38 AM -31.8560 154.7520 219° Southwest 415 478 36,000 474 Level FlightAware ADS-B
Tue 04:04:40 AM -31.8667 154.7423 219° Southwest 416 479 36,300 346 Climbing Aus ATC (RADAR)
Tue 04:05:30 AM -31.9410 154.6716 219° Southwest 413 475 36,300 -321 Level Aus ATC (RADAR)
Tue 04:05:36 AM -31.9420 154.6710 219° Southwest 414 476 36,000 -545 Descending FlightAware ADS-B
Tue 04:06:03 AM -31.9840 154.6310 219° Southwest 414 476 36,000 261 Level FlightAware ADS-B
Tue 04:06:45 AM -32.0527 154.5659 219° Southwest 413 475 36,300  Climbing Aus ATC (RADAR)
Tue 04:06:45 AM -32.0490 154.5680 219° Southwest 414 476 36,000 -667 Descending FlightAware ADS-B
Tue 04:07:12 AM -32.0880 154.5320 219° Southwest 415 478 36,000 514 Level FlightAware ADS-B
Tue 04:07:20 AM -32.1047 154.5158 219° Southwest 414 476 36,300 419 Climbing Aus ATC (RADAR)
Tue 04:07:55 AM -32.1569 154.4659 219° Southwest 414 476 36,300 -286 Level Aus ATC (RADAR)
Tue 04:08:23 AM -32.1960 154.4280 219° Southwest 418 481 36,000  Descending FlightAware ADS-B
Tue 04:08:30 AM -32.2095 154.4154 219° Southwest 419 482 36,300  Climbing Aus ATC (RADAR)
Tue 04:08:53 AM -32.2380 154.3880 219° Southwest 419 482 36,000  Descending FlightAware ADS-B
Tue 04:09:00 AM -32.2546 154.3720 219° Southwest 420 483 36,300  Climbing Aus ATC (RADAR)
Tue 04:09:33 AM -32.2990 154.3290 219° Southwest 421 484 36,000  Descending FlightAware ADS-B
Tue 04:09:50 AM -32.3299 154.2995 219° Southwest 421 484 36,300  Climbing Aus ATC (RADAR)
Tue 04:10:06 AM -32.3480 154.2820 219° Southwest 422 486 36,000  Descending FlightAware ADS-B
Tue 04:10:15 AM -32.3679 154.2630 219° Southwest 423 487 36,300 409 Climbing Aus ATC (RADAR)
Tue 04:10:50 AM -32.4210 154.2118 219° Southwest 423 487 36,300 -391 Level Aus ATC (RADAR)
Tue 04:11:01 AM -32.4300 154.2030 219° Southwest 424 488 36,000  Descending FlightAware ADS-B
Tue 04:11:35 AM -32.4893 154.1457 219° Southwest 425 489 36,300  Climbing Aus ATC (RADAR)
Tue 04:11:35 AM -32.4850 154.1500 219° Southwest 425 489 36,000  Descending FlightAware ADS-B
Tue 04:12:10 AM -32.5424 154.0943 219° Southwest 424 488 36,300  Climbing Aus ATC (RADAR)
Tue 04:12:36 AM -32.5760 154.0620 219° Southwest 423 487 36,000  Descending FlightAware ADS-B
Tue 04:12:54 AM -32.6103 154.0281 219° Southwest 422 486 36,300 419 Climbing Aus ATC (RADAR)
Tue 04:13:19 AM -32.6481 153.9915 219° Southwest 422 486 36,300 -621 Level Aus ATC (RADAR)
Tue 04:13:23 AM -32.6430 153.9970 219° Southwest 422 486 36,000  Descending FlightAware ADS-B
Tue 04:13:54 AM -32.7007 153.9401 219° Southwest 422 486 36,300  Climbing Aus ATC (RADAR)
Tue 04:14:32 AM -32.7520 153.8900 219° Southwest 422 486 36,000  Descending FlightAware ADS-B
Tue 04:14:44 AM -32.7763 153.8666 219° Southwest 424 488 36,300 649 Climbing Aus ATC (RADAR)
Tue 04:15:09 AM -32.8138 153.8299 219° Southwest 422 486 36,400 -600 Climbing Aus ATC (RADAR)
Tue 04:15:14 AM -32.8130 153.8300 219° Southwest 422 486 36,000 -171 Descending FlightAware ADS-B
Tue 04:15:44 AM -32.8664 153.7784 219° Southwest 422 486 36,300  Climbing Aus ATC (RADAR)
Tue 04:15:51 AM -32.8700 153.7750 219° Southwest 421 484 36,000  Descending FlightAware ADS-B
Tue 04:16:29 AM -32.9336 153.7126 219° Southwest 423 487 36,300 329 Climbing Aus ATC (RADAR)
Tue 04:17:04 AM -32.9860 153.6614 219° Southwest 420 483 36,400 92 Climbing Aus ATC (RADAR)
Tue 04:17:34 AM -33.0309 153.6173 219° Southwest 421 484 36,400  Level Aus ATC (RADAR)
Tue 04:18:09 AM -33.0827 153.5658 220° Southwest 419 482 36,400  Level Aus ATC (RADAR)
Tue 04:18:44 AM -33.1352 153.5141 220° Southwest 421 484 36,400 -632 Level Aus ATC (RADAR)
Tue 04:18:47 AM -33.1010 153.5510 220° Southwest 421 484 36,000  Descending FlightAware ADS-B
Tue 04:19:19 AM -33.1873 153.4628 219° Southwest 419 482 36,400 235 Climbing Aus ATC (RADAR)
Tue 04:20:29 AM -33.2915 153.3595 220° Southwest 420 483 36,400  Level Aus ATC (RADAR)
Tue 04:20:53 AM -33.3285 153.3228 220° Southwest 418 481 36,400  Level Aus ATC (RADAR)
Tue 04:21:28 AM -33.3806 153.2709 220° Southwest 420 483 36,400  Level Aus ATC (RADAR)
Tue 04:22:08 AM -33.4401 153.2116 220° Southwest 419 482 36,400  Level Aus ATC (RADAR)
Tue 04:22:43 AM -33.4922 153.1598 220° Southwest 422 486 36,400  Level Aus ATC (RADAR)
Tue 04:23:18 AM -33.5441 153.1079 220° Southwest 420 483 36,400  Level Aus ATC (RADAR)
Tue 04:23:48 AM -33.5884 153.0635 220° Southwest 417 480 36,400 -369 Level Aus ATC (RADAR)
Tue 04:24:23 AM -33.6400 153.0114 220° Southwest 416 479 36,000 -2,084 Descending Aus ATC (RADAR)
Tue 04:25:23 AM -33.7282 152.9234 220° Southwest 416 479 33,100 -2,612 Descending Aus ATC (RADAR)
Tue 04:25:48 AM -33.7646 152.8867 220° Southwest 414 476 32,300 -2,100 Descending Aus ATC (RADAR)
Tue 04:26:23 AM -33.8146 152.8359 220° Southwest 406 467 31,000 -2,203 Descending Aus ATC (RADAR)
Tue 04:27:07 AM -33.8776 152.7732 220° Southwest 395 455 29,400 -2,160 Descending Aus ATC (RADAR)
Tue 04:27:38 AM -33.9189 152.7304 221° Southwest 389 448 28,300 -2,091 Descending Aus ATC (RADAR)
Tue 04:28:13 AM -33.9666 152.6825 220° Southwest 384 442 27,100 -2,533 Descending Aus ATC (RADAR)
Tue 04:28:23 AM -33.9793 152.6697 220° Southwest 382 440 26,400 -2,057 Descending FlightAware ADS-B (KFRR)
Tue 04:29:23 AM -34.0604 152.5863 220° Southwest 382 440 24,700 -1,855 Descending Aus ATC (RADAR)
Tue 04:30:13 AM -34.0756 152.4872 259° West 378 435 23,000 -2,027 Descending Aus ATC (RADAR)
Tue 04:30:37 AM -34.0699 152.4369 278° West 365 420 22,200 -2,478 Descending Aus ATC (RADAR)
Tue 04:30:59 AM -34.0660 152.3944 278° West 362 417 21,100 -2,300 Descending FlightAware ADS-B
Tue 04:31:37 AM -34.0587 152.3180 277° West 354 407 19,900 -1,923 Descending FlightAware ADS-B
Tue 04:32:17 AM -34.0513 152.2408 277° West 349 402 18,600 -1,950 Descending FlightAware ADS-B
Tue 04:32:57 AM -34.0441 152.1635 276° West 357 411 17,300 -1,886 Descending FlightAware ADS-B
Tue 04:33:27 AM -34.0384 152.1047 277° West 352 405 16,400 -1,944 Descending FlightAware ADS-B
Tue 04:34:08 AM -34.0305 152.0249 277° West 345 397 15,000 -1,600 Descending FlightAware ADS-B
Tue 04:34:42 AM -34.0238 151.9606 277° West 338 389 14,400 -1,650 Descending Aus ATC (RADAR)
Tue 04:34:48 AM -34.0229 151.9501 277° West 339 390 13,900 -1,692 Descending FlightAware ADS-B (KFRR)
Tue 04:35:21 AM -34.0166 151.8881 277° West 341 392 13,300 -1,000 Descending FlightAware ADS-B
Tue 04:35:54 AM -34.0120 151.8418 277° West 341 392 12,800 -1,313 Descending FlightAware ADS-B (KFRR)
Tue 04:36:25 AM -34.0046 151.7700 277° West 328 377 11,900 -1,524 Descending FlightAware ADS-B (KFRR)
Tue 04:36:57 AM -33.9987 151.7105 277° West 322 371 11,200 -1,676 Descending FlightAware ADS-B
Tue 04:37:33 AM -33.9951 151.6753 277° West 322 371 10,000 -2,111 Descending FlightAware ADS-B (KFRR)
Tue 04:37:51 AM -33.9887 151.6141 277° West 324 373 9,300 -2,049 Descending FlightAware ADS-B (KFRR)
Tue 04:38:14 AM -33.9848 151.5767 277° West 324 373 8,600 -1,463 Descending FlightAware ADS-B
Tue 04:38:32 AM -33.9821 151.5508 277° West 325 374 8,300 -1,024 Descending FlightAware ADS-B
Tue 04:38:55 AM -33.9770 151.5029 277° West 328 377 7,900 -1,067 Descending FlightAware ADS-B
Tue 04:39:17 AM -33.9729 151.4630 277° West 323 372 7,500 -1,000 Descending FlightAware ADS-B (KFRR)
Tue 04:39:37 AM -33.9697 151.4314 277° West 320 368 7,200 -923 Descending FlightAware ADS-B (KFRR)
Tue 04:39:56 AM -33.9659 151.3938 277° West 318 366 6,900 -973 Descending FlightAware ADS-B (KFRR)
Tue 04:40:14 AM -33.9627 151.3633 277° West 317 365 6,600 -1,059 Descending FlightAware ADS-B (KFRR)
Tue 04:40:30 AM -33.9573 151.3329 282° West 318 366 6,300 -1,135 Descending FlightAware ADS-B
Tue 04:40:51 AM -33.9499 151.2975 284° West 316 364 5,900 -947 Descending FlightAware ADS-B
Tue 04:41:08 AM -33.9438 151.2684 284° West 315 362 5,700 -545 Descending FlightAware ADS-B
Tue 04:41:24 AM -33.9396 151.2475 284° West 310 357 5,600  Descending FlightAware ADS-B (KFRR)
Tue 04:41:43 AM -33.9324 151.2122 284° West 310 357 5,700  Climbing FlightAware ADS-B (KFRR)
Tue 04:41:58 AM -33.9269 151.1844 284° West 309 356 5,600 -632 Descending FlightAware ADS-B
Tue 04:42:21 AM -33.9207 151.1456 281° West 310 357 5,300 -923 Descending FlightAware ADS-B
Tue 04:42:37 AM -33.9191 151.1160 274° West 308 354 5,000 -811 Descending FlightAware ADS-B (KFRR)
Tue 04:42:58 AM -33.9194 151.0815 269° West 304 350 4,800 -571 Descending FlightAware ADS-B (KFRR)
Tue 04:43:19 AM -33.9220 151.0474 265° West 296 341 4,600 -267 Descending FlightAware ADS-B (KFRR)
Tue 04:43:43 AM -33.9247 151.0099 265° West 276 318 4,600 -409 Level FlightAware ADS-B
Tue 04:44:03 AM -33.9266 150.9799 266° West 266 306 4,300 -900 Descending FlightAware ADS-B
Tue 04:44:23 AM -33.9291 150.9520 264° West 258 297 4,000 -889 Descending FlightAware ADS-B
Tue 04:44:30 AM -33.9305 150.9406 261° West 251 289 3,900 -900 Descending FlightAware ADS-B
Tue 04:44:43 AM -33.9362 150.9250 247° West 246 283 3,700 -1,043 Descending FlightAware ADS-B
Tue 04:44:53 AM -33.9447 150.9152 224° Southwest 253 291 3,500 -545 Descending FlightAware ADS-B
Tue 04:45:05 AM -33.9570 150.9098 200° South 230 265 3,500 -286 Level FlightAware ADS-B
Tue 04:45:14 AM -33.9656 150.9099 179° South 224 258 3,400 -947 Descending FlightAware ADS-B
Tue 04:45:24 AM -33.9750 150.9139 161° South 221 254 3,200 -900 Descending FlightAware ADS-B
Tue 04:45:34 AM -33.9828 150.9216 140° Southeast 220 253 3,100 -571 Descending FlightAware ADS-B
Tue 04:45:45 AM -33.9877 150.9328 118° Southeast 218 251 3,000 -600 Descending FlightAware ADS-B
Tue 04:45:54 AM -33.9886 150.9415 97° East 214 246 2,900 -400 Descending FlightAware ADS-B
Tue 04:46:15 AM -33.9884 150.9694 90° East 213 245 2,800 -429 Descending FlightAware ADS-B
Tue 04:46:22 AM -33.9872 150.9783 81° East 212 244 2,700 -750 Descending FlightAware ADS-B
Tue 04:46:31 AM -33.9852 150.9879 76° East 212 244 2,600 -938 Descending FlightAware ADS-B
Tue 04:46:54 AM -33.9796 151.0112 74° East 197 227 2,200 -1,000 Descending FlightAware ADS-B
Tue 04:47:13 AM -33.9745 151.0325 74° East 212 244 1,900 -1,091 Descending FlightAware ADS-B
Tue 04:47:16 AM -33.9748 151.0313 254° West 191 220 1,800 -1,043 Descending FlightAware ADS-B
Tue 04:47:36 AM -33.9692 151.0554 74° East 183 211 1,500 -878 Descending FlightAware ADS-B
Tue 04:47:57 AM -33.9651 151.0731 74° East 171 197 1,200 -878 Descending FlightAware ADS-B
Tue 04:48:17 AM -33.9621 151.0858 74° East 157 181 900 -900 Descending FlightAware ADS-B
Tue 04:48:37 AM -33.9569 151.1079 74° East 147 169 600 -750 Descending FlightAware ADS-B
Tue 04:48:57 AM -33.9532 151.1235 74° East 143 165 400 -789 Descending FlightAware ADS-B
Tue 04:49:15 AM -33.9497 151.1384 74° East 142 163 100 -1,000 Descending FlightAware ADS-B

Login

Don't have an account? Register now (free) for customized features, flight alerts, and more!